sensor_id;sensor_type;location;lat;lon;timestamp;P1;durP1;ratioP1;P2;durP2;ratioP2
36931;SDS011;22847;42.654;23.370;2022-07-22T00:02:21;11.52;;;4.40;;
36931;SDS011;22847;42.654;23.370;2022-07-22T00:04:46;12.82;;;4.88;;
36931;SDS011;22847;42.654;23.370;2022-07-22T00:07:12;13.80;;;4.53;;
36931;SDS011;22847;42.654;23.370;2022-07-22T00:09:38;12.68;;;4.93;;
36931;SDS011;22847;42.654;23.370;2022-07-22T00:12:04;13.07;;;5.15;;
36931;SDS011;22847;42.654;23.370;2022-07-22T00:14:30;13.70;;;4.50;;
36931;SDS011;22847;42.654;23.370;2022-07-22T00:16:55;7.75;;;4.47;;
36931;SDS011;22847;42.654;23.370;2022-07-22T00:19:21;16.83;;;4.43;;
36931;SDS011;22847;42.654;23.370;2022-07-22T00:21:47;6.32;;;4.18;;
36931;SDS011;22847;42.654;23.370;2022-07-22T00:24:12;9.35;;;4.57;;
36931;SDS011;22847;42.654;23.370;2022-07-22T00:26:37;7.97;;;4.72;;
36931;SDS011;22847;42.654;23.370;2022-07-22T00:29:03;10.35;;;4.85;;
36931;SDS011;22847;42.654;23.370;2022-07-22T00:31:28;8.57;;;4.20;;
36931;SDS011;22847;42.654;23.370;2022-07-22T00:33:55;13.50;;;4.57;;
36931;SDS011;22847;42.654;23.370;2022-07-22T00:36:21;14.35;;;4.30;;
36931;SDS011;22847;42.654;23.370;2022-07-22T00:38:46;9.95;;;4.38;;
36931;SDS011;22847;42.654;23.370;2022-07-22T00:41:12;9.63;;;4.57;;
36931;SDS011;22847;42.654;23.370;2022-07-22T00:46:27;6.05;;;4.28;;
36931;SDS011;22847;42.654;23.370;2022-07-22T00:48:54;7.85;;;4.30;;
36931;SDS011;22847;42.654;23.370;2022-07-22T00:51:21;8.00;;;4.25;;
36931;SDS011;22847;42.654;23.370;2022-07-22T00:53:47;11.00;;;4.63;;
36931;SDS011;22847;42.654;23.370;2022-07-22T00:56:14;9.82;;;4.15;;
36931;SDS011;22847;42.654;23.370;2022-07-22T00:58:41;8.98;;;4.13;;
36931;SDS011;22847;42.654;23.370;2022-07-22T01:01:07;10.23;;;4.05;;
36931;SDS011;22847;42.654;23.370;2022-07-22T01:03:32;6.55;;;4.35;;
36931;SDS011;22847;42.654;23.370;2022-07-22T01:05:58;11.35;;;4.70;;
36931;SDS011;22847;42.654;23.370;2022-07-22T01:08:23;6.65;;;4.10;;
36931;SDS011;22847;42.654;23.370;2022-07-22T01:10:49;12.43;;;4.53;;
36931;SDS011;22847;42.654;23.370;2022-07-22T01:13:14;8.05;;;4.38;;
36931;SDS011;22847;42.654;23.370;2022-07-22T01:15:40;7.28;;;4.28;;
36931;SDS011;22847;42.654;23.370;2022-07-22T01:18:05;7.57;;;4.43;;
36931;SDS011;22847;42.654;23.370;2022-07-22T01:20:31;9.98;;;4.45;;
36931;SDS011;22847;42.654;23.370;2022-07-22T01:22:56;7.18;;;4.57;;
36931;SDS011;22847;42.654;23.370;2022-07-22T01:25:22;7.43;;;4.63;;
36931;SDS011;22847;42.654;23.370;2022-07-22T01:27:47;4.90;;;4.10;;
36931;SDS011;22847;42.654;23.370;2022-07-22T01:30:13;8.48;;;4.57;;
36931;SDS011;22847;42.654;23.370;2022-07-22T01:32:38;8.40;;;4.70;;
36931;SDS011;22847;42.654;23.370;2022-07-22T01:35:04;11.50;;;4.93;;
36931;SDS011;22847;42.654;23.370;2022-07-22T01:37:31;9.02;;;4.25;;
36931;SDS011;22847;42.654;23.370;2022-07-22T01:39:58;9.60;;;4.35;;
36931;SDS011;22847;42.654;23.370;2022-07-22T01:42:23;8.55;;;4.53;;
36931;SDS011;22847;42.654;23.370;2022-07-22T01:44:49;5.85;;;4.03;;
36931;SDS011;22847;42.654;23.370;2022-07-22T01:47:14;12.15;;;4.80;;
36931;SDS011;22847;42.654;23.370;2022-07-22T01:49:40;9.48;;;4.68;;
36931;SDS011;22847;42.654;23.370;2022-07-22T01:52:05;9.10;;;4.80;;
36931;SDS011;22847;42.654;23.370;2022-07-22T01:54:31;10.98;;;4.55;;
36931;SDS011;22847;42.654;23.370;2022-07-22T01:56:56;7.88;;;4.70;;
36931;SDS011;22847;42.654;23.370;2022-07-22T01:59:22;5.18;;;4.00;;
36931;SDS011;22847;42.654;23.370;2022-07-22T02:01:47;10.15;;;4.00;;
36931;SDS011;22847;42.654;23.370;2022-07-22T02:04:13;8.05;;;4.38;;
36931;SDS011;22847;42.654;23.370;2022-07-22T02:06:39;7.78;;;4.85;;
36931;SDS011;22847;42.654;23.370;2022-07-22T02:09:05;6.68;;;4.53;;
36931;SDS011;22847;42.654;23.370;2022-07-22T02:11:30;10.02;;;4.47;;
36931;SDS011;22847;42.654;23.370;2022-07-22T02:13:56;7.60;;;4.68;;
36931;SDS011;22847;42.654;23.370;2022-07-22T02:16:22;6.93;;;4.55;;
36931;SDS011;22847;42.654;23.370;2022-07-22T02:18:47;6.85;;;5.00;;
36931;SDS011;22847;42.654;23.370;2022-07-22T02:21:13;11.65;;;5.00;;
36931;SDS011;22847;42.654;23.370;2022-07-22T02:23:38;9.63;;;4.72;;
36931;SDS011;22847;42.654;23.370;2022-07-22T02:26:04;7.55;;;4.82;;
36931;SDS011;22847;42.654;23.370;2022-07-22T02:28:29;10.77;;;4.60;;
36931;SDS011;22847;42.654;23.370;2022-07-22T02:30:55;9.93;;;5.25;;
36931;SDS011;22847;42.654;23.370;2022-07-22T02:33:20;10.15;;;5.18;;
36931;SDS011;22847;42.654;23.370;2022-07-22T02:35:46;12.63;;;5.53;;
36931;SDS011;22847;42.654;23.370;2022-07-22T02:38:11;10.52;;;4.93;;
36931;SDS011;22847;42.654;23.370;2022-07-22T02:40:37;9.45;;;4.78;;
36931;SDS011;22847;42.654;23.370;2022-07-22T02:43:02;8.25;;;5.45;;
36931;SDS011;22847;42.654;23.370;2022-07-22T02:45:31;10.48;;;5.28;;
36931;SDS011;22847;42.654;23.370;2022-07-22T02:47:57;7.78;;;4.93;;
36931;SDS011;22847;42.654;23.370;2022-07-22T02:50:22;11.70;;;5.28;;
36931;SDS011;22847;42.654;23.370;2022-07-22T02:52:48;14.90;;;6.97;;
36931;SDS011;22847;42.654;23.370;2022-07-22T02:55:14;14.18;;;6.22;;
36931;SDS011;22847;42.654;23.370;2022-07-22T02:57:40;14.40;;;6.45;;
36931;SDS011;22847;42.654;23.370;2022-07-22T03:00:06;11.80;;;6.18;;
36931;SDS011;22847;42.654;23.370;2022-07-22T03:02:36;13.32;;;6.25;;
36931;SDS011;22847;42.654;23.370;2022-07-22T03:05:02;12.15;;;6.10;;
36931;SDS011;22847;42.654;23.370;2022-07-22T03:07:29;9.70;;;5.90;;
36931;SDS011;22847;42.654;23.370;2022-07-22T03:09:54;13.90;;;7.82;;
36931;SDS011;22847;42.654;23.370;2022-07-22T03:12:19;29.50;;;16.70;;
36931;SDS011;22847;42.654;23.370;2022-07-22T03:14:45;16.27;;;8.13;;
36931;SDS011;22847;42.654;23.370;2022-07-22T03:17:10;12.55;;;6.22;;
36931;SDS011;22847;42.654;23.370;2022-07-22T03:19:36;14.48;;;6.00;;
36931;SDS011;22847;42.654;23.370;2022-07-22T03:22:01;8.80;;;4.95;;
36931;SDS011;22847;42.654;23.370;2022-07-22T03:24:27;11.30;;;6.07;;
36931;SDS011;22847;42.654;23.370;2022-07-22T03:26:52;13.82;;;5.70;;
36931;SDS011;22847;42.654;23.370;2022-07-22T03:29:18;11.30;;;5.65;;
36931;SDS011;22847;42.654;23.370;2022-07-22T03:31:43;13.95;;;6.35;;
36931;SDS011;22847;42.654;23.370;2022-07-22T03:34:08;11.60;;;5.40;;
36931;SDS011;22847;42.654;23.370;2022-07-22T03:36:34;9.55;;;5.72;;
36931;SDS011;22847;42.654;23.370;2022-07-22T03:38:59;11.63;;;6.05;;
36931;SDS011;22847;42.654;23.370;2022-07-22T03:41:25;11.07;;;5.60;;
36931;SDS011;22847;42.654;23.370;2022-07-22T03:43:50;14.48;;;5.93;;
36931;SDS011;22847;42.654;23.370;2022-07-22T03:46:16;11.60;;;5.90;;
36931;SDS011;22847;42.654;23.370;2022-07-22T03:48:41;10.32;;;5.90;;
36931;SDS011;22847;42.654;23.370;2022-07-22T03:51:07;14.32;;;6.88;;
36931;SDS011;22847;42.654;23.370;2022-07-22T03:53:32;12.65;;;6.25;;
36931;SDS011;22847;42.654;23.370;2022-07-22T03:55:59;14.65;;;6.70;;
36931;SDS011;22847;42.654;23.370;2022-07-22T03:58:25;18.67;;;6.55;;
36931;SDS011;22847;42.654;23.370;2022-07-22T04:00:51;12.00;;;6.38;;
36931;SDS011;22847;42.654;23.370;2022-07-22T04:03:17;18.27;;;6.88;;
36931;SDS011;22847;42.654;23.370;2022-07-22T04:05:43;11.00;;;6.35;;
36931;SDS011;22847;42.654;23.370;2022-07-22T04:08:09;11.93;;;6.63;;
36931;SDS011;22847;42.654;23.370;2022-07-22T04:10:35;14.40;;;5.50;;
36931;SDS011;22847;42.654;23.370;2022-07-22T04:13:00;14.65;;;7.03;;
36931;SDS011;22847;42.654;23.370;2022-07-22T04:15:26;10.80;;;6.60;;
36931;SDS011;22847;42.654;23.370;2022-07-22T04:17:52;13.55;;;7.15;;
36931;SDS011;22847;42.654;23.370;2022-07-22T04:20:18;11.65;;;6.82;;
36931;SDS011;22847;42.654;23.370;2022-07-22T04:22:43;15.40;;;6.95;;
36931;SDS011;22847;42.654;23.370;2022-07-22T04:25:08;13.35;;;6.65;;
36931;SDS011;22847;42.654;23.370;2022-07-22T04:27:34;11.23;;;6.50;;
36931;SDS011;22847;42.654;23.370;2022-07-22T04:30:00;18.60;;;6.25;;
36931;SDS011;22847;42.654;23.370;2022-07-22T04:32:26;11.00;;;6.70;;
36931;SDS011;22847;42.654;23.370;2022-07-22T04:34:52;13.55;;;6.25;;
36931;SDS011;22847;42.654;23.370;2022-07-22T04:37:17;24.00;;;7.07;;
36931;SDS011;22847;42.654;23.370;2022-07-22T04:39:43;12.55;;;7.45;;
36931;SDS011;22847;42.654;23.370;2022-07-22T04:42:08;13.80;;;7.18;;
36931;SDS011;22847;42.654;23.370;2022-07-22T04:44:34;12.90;;;7.38;;
36931;SDS011;22847;42.654;23.370;2022-07-22T04:46:59;15.23;;;7.28;;
36931;SDS011;22847;42.654;23.370;2022-07-22T04:49:25;16.55;;;7.55;;
36931;SDS011;22847;42.654;23.370;2022-07-22T04:51:51;11.43;;;7.05;;
36931;SDS011;22847;42.654;23.370;2022-07-22T04:54:17;11.32;;;5.57;;
36931;SDS011;22847;42.654;23.370;2022-07-22T04:56:42;13.88;;;6.30;;
36931;SDS011;22847;42.654;23.370;2022-07-22T04:59:07;12.20;;;7.07;;
36931;SDS011;22847;42.654;23.370;2022-07-22T05:01:33;15.02;;;6.35;;
36931;SDS011;22847;42.654;23.370;2022-07-22T05:03:58;10.23;;;6.50;;
36931;SDS011;22847;42.654;23.370;2022-07-22T05:06:24;12.60;;;6.72;;
36931;SDS011;22847;42.654;23.370;2022-07-22T05:08:49;15.05;;;7.03;;
36931;SDS011;22847;42.654;23.370;2022-07-22T05:11:15;12.65;;;7.28;;
36931;SDS011;22847;42.654;23.370;2022-07-22T05:13:40;14.95;;;7.55;;
36931;SDS011;22847;42.654;23.370;2022-07-22T05:16:07;15.45;;;7.50;;
36931;SDS011;22847;42.654;23.370;2022-07-22T05:18:33;11.75;;;7.22;;
36931;SDS011;22847;42.654;23.370;2022-07-22T05:20:59;12.95;;;7.72;;
36931;SDS011;22847;42.654;23.370;2022-07-22T05:23:25;16.95;;;7.07;;
36931;SDS011;22847;42.654;23.370;2022-07-22T05:25:50;20.65;;;7.25;;
36931;SDS011;22847;42.654;23.370;2022-07-22T05:28:16;22.52;;;9.60;;
36931;SDS011;22847;42.654;23.370;2022-07-22T05:30:41;32.53;;;17.13;;
36931;SDS011;22847;42.654;23.370;2022-07-22T05:33:07;15.05;;;9.02;;
36931;SDS011;22847;42.654;23.370;2022-07-22T05:35:32;16.23;;;10.68;;
36931;SDS011;22847;42.654;23.370;2022-07-22T05:37:57;13.90;;;8.30;;
36931;SDS011;22847;42.654;23.370;2022-07-22T05:40:23;12.77;;;7.38;;
36931;SDS011;22847;42.654;23.370;2022-07-22T05:42:48;12.07;;;7.05;;
36931;SDS011;22847;42.654;23.370;2022-07-22T05:45:14;11.05;;;6.78;;
36931;SDS011;22847;42.654;23.370;2022-07-22T05:47:39;10.70;;;7.32;;
36931;SDS011;22847;42.654;23.370;2022-07-22T05:50:05;16.95;;;7.68;;
36931;SDS011;22847;42.654;23.370;2022-07-22T05:52:30;16.23;;;8.13;;
36931;SDS011;22847;42.654;23.370;2022-07-22T05:54:58;14.40;;;7.28;;
36931;SDS011;22847;42.654;23.370;2022-07-22T05:57:24;15.40;;;7.50;;
36931;SDS011;22847;42.654;23.370;2022-07-22T05:59:50;15.18;;;8.35;;
36931;SDS011;22847;42.654;23.370;2022-07-22T06:02:15;16.65;;;7.25;;
36931;SDS011;22847;42.654;23.370;2022-07-22T06:04:41;15.07;;;7.20;;
36931;SDS011;22847;42.654;23.370;2022-07-22T06:07:06;22.63;;;7.30;;
36931;SDS011;22847;42.654;23.370;2022-07-22T06:09:32;15.00;;;7.10;;
36931;SDS011;22847;42.654;23.370;2022-07-22T06:11:57;13.05;;;6.80;;
36931;SDS011;22847;42.654;23.370;2022-07-22T06:14:23;18.80;;;7.45;;
36931;SDS011;22847;42.654;23.370;2022-07-22T06:16:48;14.85;;;7.07;;
36931;SDS011;22847;42.654;23.370;2022-07-22T06:19:14;13.82;;;6.65;;
36931;SDS011;22847;42.654;23.370;2022-07-22T06:21:40;13.73;;;6.90;;
36931;SDS011;22847;42.654;23.370;2022-07-22T06:24:05;14.15;;;6.30;;
36931;SDS011;22847;42.654;23.370;2022-07-22T06:26:31;16.88;;;6.10;;
36931;SDS011;22847;42.654;23.370;2022-07-22T06:28:57;14.48;;;6.65;;
36931;SDS011;22847;42.654;23.370;2022-07-22T06:31:22;13.60;;;6.60;;
36931;SDS011;22847;42.654;23.370;2022-07-22T06:33:47;18.35;;;7.07;;
36931;SDS011;22847;42.654;23.370;2022-07-22T06:36:13;16.55;;;7.18;;
36931;SDS011;22847;42.654;23.370;2022-07-22T06:38:40;15.63;;;6.70;;
36931;SDS011;22847;42.654;23.370;2022-07-22T06:41:05;17.13;;;6.47;;
36931;SDS011;22847;42.654;23.370;2022-07-22T06:43:31;19.05;;;8.70;;
36931;SDS011;22847;42.654;23.370;2022-07-22T06:45:56;12.23;;;6.50;;
36931;SDS011;22847;42.654;23.370;2022-07-22T06:48:22;17.48;;;7.93;;
36931;SDS011;22847;42.654;23.370;2022-07-22T06:50:47;14.95;;;7.63;;
36931;SDS011;22847;42.654;23.370;2022-07-22T06:53:13;15.63;;;7.40;;
36931;SDS011;22847;42.654;23.370;2022-07-22T06:55:38;20.98;;;8.38;;
36931;SDS011;22847;42.654;23.370;2022-07-22T06:58:04;18.85;;;7.13;;
36931;SDS011;22847;42.654;23.370;2022-07-22T07:00:29;17.75;;;7.18;;
36931;SDS011;22847;42.654;23.370;2022-07-22T07:02:57;20.42;;;6.90;;
36931;SDS011;22847;42.654;23.370;2022-07-22T07:05:24;14.52;;;6.55;;
36931;SDS011;22847;42.654;23.370;2022-07-22T07:07:50;13.40;;;6.47;;
36931;SDS011;22847;42.654;23.370;2022-07-22T07:10:15;15.60;;;6.05;;
36931;SDS011;22847;42.654;23.370;2022-07-22T07:12:41;12.80;;;6.38;;
36931;SDS011;22847;42.654;23.370;2022-07-22T07:15:06;10.63;;;5.60;;
36931;SDS011;22847;42.654;23.370;2022-07-22T07:17:32;17.00;;;6.22;;
36931;SDS011;22847;42.654;23.370;2022-07-22T07:19:58;13.52;;;5.63;;
36931;SDS011;22847;42.654;23.370;2022-07-22T07:22:23;23.13;;;5.68;;
36931;SDS011;22847;42.654;23.370;2022-07-22T07:24:49;14.25;;;6.13;;
36931;SDS011;22847;42.654;23.370;2022-07-22T07:27:15;14.98;;;6.40;;
36931;SDS011;22847;42.654;23.370;2022-07-22T07:29:40;10.23;;;5.30;;
36931;SDS011;22847;42.654;23.370;2022-07-22T07:32:06;16.38;;;5.85;;
36931;SDS011;22847;42.654;23.370;2022-07-22T07:34:31;19.15;;;6.20;;
36931;SDS011;22847;42.654;23.370;2022-07-22T07:36:57;13.82;;;5.20;;
36931;SDS011;22847;42.654;23.370;2022-07-22T07:39:23;12.43;;;5.75;;
36931;SDS011;22847;42.654;23.370;2022-07-22T07:41:48;8.45;;;5.85;;
36931;SDS011;22847;42.654;23.370;2022-07-22T07:44:14;8.23;;;5.28;;
36931;SDS011;22847;42.654;23.370;2022-07-22T07:46:39;18.90;;;5.80;;
36931;SDS011;22847;42.654;23.370;2022-07-22T07:49:04;12.73;;;5.90;;
36931;SDS011;22847;42.654;23.370;2022-07-22T07:51:30;8.38;;;5.30;;
36931;SDS011;22847;42.654;23.370;2022-07-22T07:53:55;15.95;;;5.25;;
36931;SDS011;22847;42.654;23.370;2022-07-22T07:56:21;13.40;;;5.32;;
36931;SDS011;22847;42.654;23.370;2022-07-22T07:58:46;11.50;;;4.72;;
36931;SDS011;22847;42.654;23.370;2022-07-22T08:01:12;8.23;;;5.25;;
36931;SDS011;22847;42.654;23.370;2022-07-22T08:03:37;7.95;;;5.32;;
36931;SDS011;22847;42.654;23.370;2022-07-22T08:06:03;13.15;;;5.28;;
36931;SDS011;22847;42.654;23.370;2022-07-22T08:08:29;7.53;;;4.88;;
36931;SDS011;22847;42.654;23.370;2022-07-22T08:10:54;8.10;;;4.68;;
36931;SDS011;22847;42.654;23.370;2022-07-22T08:13:20;11.68;;;4.57;;
36931;SDS011;22847;42.654;23.370;2022-07-22T08:15:45;21.30;;;4.60;;
36931;SDS011;22847;42.654;23.370;2022-07-22T08:18:11;11.38;;;4.80;;
36931;SDS011;22847;42.654;23.370;2022-07-22T08:20:36;9.00;;;4.60;;
36931;SDS011;22847;42.654;23.370;2022-07-22T08:23:02;11.10;;;4.30;;
36931;SDS011;22847;42.654;23.370;2022-07-22T08:25:27;7.93;;;4.35;;
36931;SDS011;22847;42.654;23.370;2022-07-22T08:27:53;14.77;;;4.60;;
36931;SDS011;22847;42.654;23.370;2022-07-22T08:30:19;13.25;;;4.60;;
36931;SDS011;22847;42.654;23.370;2022-07-22T08:32:45;16.35;;;4.88;;
36931;SDS011;22847;42.654;23.370;2022-07-22T08:35:11;11.35;;;3.90;;
36931;SDS011;22847;42.654;23.370;2022-07-22T08:37:37;6.78;;;4.25;;
36931;SDS011;22847;42.654;23.370;2022-07-22T08:40:03;10.70;;;4.22;;
36931;SDS011;22847;42.654;23.370;2022-07-22T08:42:31;15.27;;;4.72;;
36931;SDS011;22847;42.654;23.370;2022-07-22T08:45:01;7.70;;;4.50;;
36931;SDS011;22847;42.654;23.370;2022-07-22T08:47:26;8.70;;;4.45;;
36931;SDS011;22847;42.654;23.370;2022-07-22T08:49:52;8.65;;;3.92;;
36931;SDS011;22847;42.654;23.370;2022-07-22T08:52:17;9.20;;;4.03;;
36931;SDS011;22847;42.654;23.370;2022-07-22T08:54:43;8.02;;;4.13;;
36931;SDS011;22847;42.654;23.370;2022-07-22T08:57:08;7.13;;;4.10;;
36931;SDS011;22847;42.654;23.370;2022-07-22T08:59:47;6.30;;;3.95;;
36931;SDS011;22847;42.654;23.370;2022-07-22T09:02:17;6.03;;;3.63;;
36931;SDS011;22847;42.654;23.370;2022-07-22T09:07:25;8.70;;;4.28;;
36931;SDS011;22847;42.654;23.370;2022-07-22T09:09:55;9.23;;;4.70;;
36931;SDS011;22847;42.654;23.370;2022-07-22T09:12:22;12.30;;;4.60;;
36931;SDS011;22847;42.654;23.370;2022-07-22T09:14:51;12.70;;;5.22;;
36931;SDS011;22847;42.654;23.370;2022-07-22T09:17:25;7.88;;;4.63;;
36931;SDS011;22847;42.654;23.370;2022-07-22T09:20:03;6.95;;;4.70;;
36931;SDS011;22847;42.654;23.370;2022-07-22T09:22:40;11.05;;;4.95;;
36931;SDS011;22847;42.654;23.370;2022-07-22T09:25:18;9.23;;;4.50;;
36931;SDS011;22847;42.654;23.370;2022-07-22T09:27:51;11.70;;;4.65;;
36931;SDS011;22847;42.654;23.370;2022-07-22T09:30:19;9.40;;;6.20;;
36931;SDS011;22847;42.654;23.370;2022-07-22T09:32:47;11.15;;;5.68;;
36931;SDS011;22847;42.654;23.370;2022-07-22T09:35:13;6.75;;;4.70;;
36931;SDS011;22847;42.654;23.370;2022-07-22T09:37:53;11.57;;;4.18;;
36931;SDS011;22847;42.654;23.370;2022-07-22T09:40:23;9.50;;;4.65;;
36931;SDS011;22847;42.654;23.370;2022-07-22T09:42:51;9.07;;;4.68;;
36931;SDS011;22847;42.654;23.370;2022-07-22T09:45:20;7.57;;;4.45;;
36931;SDS011;22847;42.654;23.370;2022-07-22T09:47:47;10.15;;;5.20;;
36931;SDS011;22847;42.654;23.370;2022-07-22T09:50:24;9.35;;;4.55;;
36931;SDS011;22847;42.654;23.370;2022-07-22T09:52:52;5.82;;;4.63;;
36931;SDS011;22847;42.654;23.370;2022-07-22T09:55:20;7.43;;;4.97;;
36931;SDS011;22847;42.654;23.370;2022-07-22T09:57:47;12.52;;;4.47;;
36931;SDS011;22847;42.654;23.370;2022-07-22T10:00:14;11.90;;;4.80;;
36931;SDS011;22847;42.654;23.370;2022-07-22T10:05:13;11.57;;;5.00;;
36931;SDS011;22847;42.654;23.370;2022-07-22T10:07:40;9.38;;;3.92;;
36931;SDS011;22847;42.654;23.370;2022-07-22T10:10:07;8.65;;;4.65;;
36931;SDS011;22847;42.654;23.370;2022-07-22T10:12:34;11.27;;;4.57;;
36931;SDS011;22847;42.654;23.370;2022-07-22T10:15:02;9.68;;;4.40;;
36931;SDS011;22847;42.654;23.370;2022-07-22T10:17:27;10.65;;;5.10;;
36931;SDS011;22847;42.654;23.370;2022-07-22T10:19:54;7.68;;;5.10;;
36931;SDS011;22847;42.654;23.370;2022-07-22T10:25:08;11.70;;;4.97;;
36931;SDS011;22847;42.654;23.370;2022-07-22T10:27:54;6.68;;;4.15;;
36931;SDS011;22847;42.654;23.370;2022-07-22T10:30:25;11.38;;;4.30;;
36931;SDS011;22847;42.654;23.370;2022-07-22T10:35:34;7.75;;;4.55;;
36931;SDS011;22847;42.654;23.370;2022-07-22T10:38:02;9.65;;;4.38;;
36931;SDS011;22847;42.654;23.370;2022-07-22T10:40:30;7.20;;;4.35;;
36931;SDS011;22847;42.654;23.370;2022-07-22T10:43:10;11.93;;;4.72;;
36931;SDS011;22847;42.654;23.370;2022-07-22T10:45:38;7.28;;;4.88;;
36931;SDS011;22847;42.654;23.370;2022-07-22T10:48:06;10.02;;;4.88;;
36931;SDS011;22847;42.654;23.370;2022-07-22T10:53:24;10.80;;;4.63;;
36931;SDS011;22847;42.654;23.370;2022-07-22T10:56:00;11.43;;;4.90;;
36931;SDS011;22847;42.654;23.370;2022-07-22T11:01:07;10.00;;;5.18;;
36931;SDS011;22847;42.654;23.370;2022-07-22T11:08:54;8.40;;;4.50;;
36931;SDS011;22847;42.654;23.370;2022-07-22T11:14:03;10.13;;;4.78;;
36931;SDS011;22847;42.654;23.370;2022-07-22T11:16:37;9.52;;;5.40;;
36931;SDS011;22847;42.654;23.370;2022-07-22T11:19:02;12.75;;;5.47;;
36931;SDS011;22847;42.654;23.370;2022-07-22T11:21:29;13.73;;;5.35;;
36931;SDS011;22847;42.654;23.370;2022-07-22T11:23:57;11.57;;;5.80;;
36931;SDS011;22847;42.654;23.370;2022-07-22T11:26:35;10.73;;;4.65;;
36931;SDS011;22847;42.654;23.370;2022-07-22T11:29:04;10.15;;;5.28;;
36931;SDS011;22847;42.654;23.370;2022-07-22T11:31:30;9.05;;;4.97;;
36931;SDS011;22847;42.654;23.370;2022-07-22T11:34:06;13.38;;;5.65;;
36931;SDS011;22847;42.654;23.370;2022-07-22T11:36:36;33.55;;;5.50;;
36931;SDS011;22847;42.654;23.370;2022-07-22T11:39:05;10.43;;;4.63;;
36931;SDS011;22847;42.654;23.370;2022-07-22T11:41:32;10.93;;;4.97;;
36931;SDS011;22847;42.654;23.370;2022-07-22T11:43:58;8.05;;;4.50;;
36931;SDS011;22847;42.654;23.370;2022-07-22T11:46:24;10.95;;;4.15;;
36931;SDS011;22847;42.654;23.370;2022-07-22T11:48:51;13.35;;;4.68;;
36931;SDS011;22847;42.654;23.370;2022-07-22T11:51:23;9.52;;;4.55;;
36931;SDS011;22847;42.654;23.370;2022-07-22T11:53:53;9.38;;;4.20;;
36931;SDS011;22847;42.654;23.370;2022-07-22T11:56:19;14.98;;;4.95;;
36931;SDS011;22847;42.654;23.370;2022-07-22T11:58:48;11.90;;;4.40;;
36931;SDS011;22847;42.654;23.370;2022-07-22T12:01:15;10.48;;;5.07;;
36931;SDS011;22847;42.654;23.370;2022-07-22T12:03:48;12.88;;;4.80;;
36931;SDS011;22847;42.654;23.370;2022-07-22T12:06:16;12.75;;;4.65;;
36931;SDS011;22847;42.654;23.370;2022-07-22T12:08:44;10.18;;;4.63;;
36931;SDS011;22847;42.654;23.370;2022-07-22T12:11:12;7.95;;;4.38;;
36931;SDS011;22847;42.654;23.370;2022-07-22T12:13:40;10.10;;;4.80;;
36931;SDS011;22847;42.654;23.370;2022-07-22T12:16:17;12.10;;;4.40;;
36931;SDS011;22847;42.654;23.370;2022-07-22T12:18:59;9.27;;;4.90;;
36931;SDS011;22847;42.654;23.370;2022-07-22T12:21:29;12.32;;;5.25;;
36931;SDS011;22847;42.654;23.370;2022-07-22T12:24:01;14.73;;;5.32;;
36931;SDS011;22847;42.654;23.370;2022-07-22T12:26:44;11.32;;;4.85;;
36931;SDS011;22847;42.654;23.370;2022-07-22T12:37:20;10.25;;;5.13;;
36931;SDS011;22847;42.654;23.370;2022-07-22T12:39:58;14.05;;;4.78;;
36931;SDS011;22847;42.654;23.370;2022-07-22T12:42:26;9.10;;;4.55;;
36931;SDS011;22847;42.654;23.370;2022-07-22T12:45:15;10.50;;;4.65;;
36931;SDS011;22847;42.654;23.370;2022-07-22T12:47:49;9.40;;;4.55;;
36931;SDS011;22847;42.654;23.370;2022-07-22T12:52:54;10.07;;;4.47;;
36931;SDS011;22847;42.654;23.370;2022-07-22T12:55:21;7.47;;;4.32;;
36931;SDS011;22847;42.654;23.370;2022-07-22T12:57:47;8.68;;;4.55;;
36931;SDS011;22847;42.654;23.370;2022-07-22T13:00:17;7.78;;;4.32;;
36931;SDS011;22847;42.654;23.370;2022-07-22T13:02:48;9.63;;;4.30;;
36931;SDS011;22847;42.654;23.370;2022-07-22T13:05:13;10.38;;;5.03;;
36931;SDS011;22847;42.654;23.370;2022-07-22T13:07:39;6.78;;;3.70;;
36931;SDS011;22847;42.654;23.370;2022-07-22T13:10:05;6.93;;;3.95;;
36931;SDS011;22847;42.654;23.370;2022-07-22T13:12:31;11.90;;;4.35;;
36931;SDS011;22847;42.654;23.370;2022-07-22T13:14:57;16.45;;;6.00;;
36931;SDS011;22847;42.654;23.370;2022-07-22T13:17:22;9.70;;;4.03;;
36931;SDS011;22847;42.654;23.370;2022-07-22T13:19:48;9.98;;;4.05;;
36931;SDS011;22847;42.654;23.370;2022-07-22T13:22:13;12.68;;;4.35;;
36931;SDS011;22847;42.654;23.370;2022-07-22T13:24:39;7.85;;;3.67;;
36931;SDS011;22847;42.654;23.370;2022-07-22T13:27:04;11.80;;;3.75;;
36931;SDS011;22847;42.654;23.370;2022-07-22T13:29:29;5.75;;;3.78;;
36931;SDS011;22847;42.654;23.370;2022-07-22T13:31:55;7.88;;;3.88;;
36931;SDS011;22847;42.654;23.370;2022-07-22T13:34:20;7.57;;;3.53;;
36931;SDS011;22847;42.654;23.370;2022-07-22T13:36:46;11.57;;;4.35;;
36931;SDS011;22847;42.654;23.370;2022-07-22T13:39:11;13.32;;;5.85;;
36931;SDS011;22847;42.654;23.370;2022-07-22T13:41:37;11.20;;;5.95;;
36931;SDS011;22847;42.654;23.370;2022-07-22T13:44:02;9.20;;;4.10;;
36931;SDS011;22847;42.654;23.370;2022-07-22T13:46:28;9.25;;;4.40;;
36931;SDS011;22847;42.654;23.370;2022-07-22T13:48:54;8.32;;;5.25;;
36931;SDS011;22847;42.654;23.370;2022-07-22T13:51:19;5.78;;;4.28;;
36931;SDS011;22847;42.654;23.370;2022-07-22T13:53:44;13.90;;;7.25;;
36931;SDS011;22847;42.654;23.370;2022-07-22T13:56:10;17.05;;;8.27;;
36931;SDS011;22847;42.654;23.370;2022-07-22T13:58:37;11.95;;;4.80;;
36931;SDS011;22847;42.654;23.370;2022-07-22T14:01:05;13.57;;;4.72;;
36931;SDS011;22847;42.654;23.370;2022-07-22T14:03:32;8.65;;;3.78;;
36931;SDS011;22847;42.654;23.370;2022-07-22T14:05:57;13.30;;;4.82;;
36931;SDS011;22847;42.654;23.370;2022-07-22T14:08:22;11.68;;;4.05;;
36931;SDS011;22847;42.654;23.370;2022-07-22T14:10:48;14.25;;;4.38;;
36931;SDS011;22847;42.654;23.370;2022-07-22T14:13:13;8.73;;;4.43;;
36931;SDS011;22847;42.654;23.370;2022-07-22T14:15:39;7.93;;;4.30;;
36931;SDS011;22847;42.654;23.370;2022-07-22T14:18:04;12.68;;;4.05;;
36931;SDS011;22847;42.654;23.370;2022-07-22T14:20:32;9.90;;;4.40;;
36931;SDS011;22847;42.654;23.370;2022-07-22T14:22:58;7.03;;;3.97;;
36931;SDS011;22847;42.654;23.370;2022-07-22T14:25:23;8.10;;;4.25;;
36931;SDS011;22847;42.654;23.370;2022-07-22T14:27:49;8.27;;;4.15;;
36931;SDS011;22847;42.654;23.370;2022-07-22T14:30:14;13.45;;;5.18;;
36931;SDS011;22847;42.654;23.370;2022-07-22T14:32:40;10.98;;;4.00;;
36931;SDS011;22847;42.654;23.370;2022-07-22T14:35:06;11.90;;;4.75;;
36931;SDS011;22847;42.654;23.370;2022-07-22T14:37:31;5.25;;;4.22;;
36931;SDS011;22847;42.654;23.370;2022-07-22T14:39:57;8.57;;;4.18;;
36931;SDS011;22847;42.654;23.370;2022-07-22T14:42:23;9.55;;;4.15;;
36931;SDS011;22847;42.654;23.370;2022-07-22T14:44:49;11.70;;;3.70;;
36931;SDS011;22847;42.654;23.370;2022-07-22T14:47:15;7.13;;;3.60;;
36931;SDS011;22847;42.654;23.370;2022-07-22T14:49:40;12.82;;;4.55;;
36931;SDS011;22847;42.654;23.370;2022-07-22T14:52:06;5.57;;;3.28;;
36931;SDS011;22847;42.654;23.370;2022-07-22T14:54:31;9.77;;;3.60;;
36931;SDS011;22847;42.654;23.370;2022-07-22T14:56:56;6.85;;;3.33;;
36931;SDS011;22847;42.654;23.370;2022-07-22T14:59:22;8.98;;;3.85;;
36931;SDS011;22847;42.654;23.370;2022-07-22T15:01:50;10.50;;;3.97;;